createdAt,value
2017-06-28T00:00:13.650Z,0
2017-06-28T00:01:13.642Z,0
2017-06-28T00:02:13.932Z,0
2017-06-28T00:03:13.924Z,0
2017-06-28T00:04:13.929Z,0
2017-06-28T00:05:13.906Z,0
2017-06-28T00:06:13.600Z,0
2017-06-28T00:07:13.895Z,0
2017-06-28T00:08:13.883Z,0
2017-06-28T00:09:13.879Z,0
2017-06-28T00:10:13.868Z,0
2017-06-28T00:11:13.863Z,0
2017-06-28T00:12:13.852Z,0
2017-06-28T00:13:13.844Z,0
2017-06-28T00:14:13.832Z,0
2017-06-28T00:15:13.825Z,0
2017-06-28T00:16:13.822Z,0
2017-06-28T00:17:13.812Z,0
2017-06-28T00:18:13.498Z,0
2017-06-28T00:19:13.503Z,0
2017-06-28T00:20:13.788Z,0
2017-06-28T00:21:13.774Z,0
2017-06-28T00:22:13.767Z,0
2017-06-28T00:23:13.763Z,0
2017-06-28T00:24:13.751Z,0
2017-06-28T00:25:13.739Z,0
2017-06-28T00:26:13.739Z,0
2017-06-28T00:27:13.724Z,0
2017-06-28T00:28:13.721Z,0
2017-06-28T00:29:13.705Z,0
2017-06-28T00:30:13.699Z,0
2017-06-28T00:31:13.701Z,0
2017-06-28T00:32:13.686Z,0
2017-06-28T00:33:13.680Z,0
2017-06-28T00:34:13.684Z,0
2017-06-28T00:35:13.394Z,0
2017-06-28T00:36:13.651Z,0
2017-06-28T00:37:13.645Z,0
2017-06-28T00:38:13.630Z,0
2017-06-28T00:39:13.633Z,0
2017-06-28T00:40:13.619Z,0
2017-06-28T00:41:13.614Z,0
2017-06-28T00:42:13.599Z,0
2017-06-28T00:43:13.596Z,0
2017-06-28T00:44:13.586Z,0
2017-06-28T00:45:13.578Z,0
2017-06-28T00:46:13.561Z,0
2017-06-28T00:47:13.557Z,0
2017-06-28T00:48:13.547Z,0
2017-06-28T00:49:13.541Z,0
2017-06-28T00:50:13.539Z,0
2017-06-28T00:51:13.522Z,0
2017-06-28T00:52:13.516Z,0
2017-06-28T00:53:13.202Z,0
2017-06-28T00:54:13.500Z,0
2017-06-28T00:55:13.487Z,0
2017-06-28T00:56:13.480Z,0
2017-06-28T00:57:13.171Z,0
2017-06-28T00:58:13.465Z,0
2017-06-28T00:59:13.454Z,0
2017-06-28T01:00:13.448Z,0
2017-06-28T01:01:13.431Z,0
2017-06-28T01:02:13.429Z,0
2017-06-28T01:03:13.425Z,0
2017-06-28T01:04:13.115Z,0
2017-06-28T01:05:13.409Z,0
2017-06-28T01:06:13.401Z,0
2017-06-28T01:07:13.385Z,0
2017-06-28T01:08:13.379Z,0
2017-06-28T01:09:13.378Z,0
2017-06-28T01:10:13.357Z,0
2017-06-28T01:11:13.351Z,0
2017-06-28T01:12:13.038Z,0
2017-06-28T01:13:13.336Z,0
2017-06-28T01:14:13.330Z,0
2017-06-28T01:15:13.319Z,0
2017-06-28T01:16:13.304Z,0
2017-06-28T01:17:13.301Z,0
2017-06-28T01:18:13.290Z,0
2017-06-28T01:19:13.290Z,0
2017-06-28T01:20:13.277Z,0
2017-06-28T01:21:13.269Z,0
2017-06-28T01:22:12.965Z,0
2017-06-28T01:23:13.251Z,0
2017-06-28T01:24:12.948Z,0
2017-06-28T01:25:13.240Z,0
2017-06-28T01:26:13.225Z,0
2017-06-28T01:27:12.916Z,0
2017-06-28T01:28:13.209Z,0
2017-06-28T01:29:12.897Z,0
2017-06-28T01:30:13.195Z,0
2017-06-28T01:31:13.179Z,0
2017-06-28T01:32:12.872Z,0
2017-06-28T01:33:12.866Z,0
2017-06-28T01:34:13.155Z,0
2017-06-28T01:35:12.849Z,0
2017-06-28T01:36:13.137Z,0
2017-06-28T01:37:13.129Z,0
2017-06-28T01:38:13.125Z,0
2017-06-28T01:39:13.113Z,0
2017-06-28T01:40:12.803Z,0
2017-06-28T01:41:13.096Z,0
2017-06-28T01:42:13.087Z,0
2017-06-28T01:43:13.085Z,0
2017-06-28T01:44:13.070Z,0
2017-06-28T01:45:12.765Z,0
2017-06-28T01:46:13.062Z,0
2017-06-28T01:47:13.049Z,0
2017-06-28T01:48:13.035Z,0
2017-06-28T01:49:13.026Z,0
2017-06-28T01:50:13.027Z,0
2017-06-28T01:51:13.008Z,0
2017-06-28T01:52:12.699Z,0
2017-06-28T01:53:12.993Z,0
2017-06-28T01:54:12.991Z,0
2017-06-28T01:55:12.973Z,0
2017-06-28T01:56:12.966Z,0
2017-06-28T01:57:12.955Z,0
2017-06-28T01:58:12.950Z,0
2017-06-28T01:59:12.641Z,0
2017-06-28T02:00:12.628Z,0
2017-06-28T02:01:12.921Z,0
2017-06-28T02:02:12.915Z,0
2017-06-28T02:03:12.905Z,0
2017-06-28T02:04:12.932Z,0
2017-06-28T02:05:12.586Z,0
2017-06-28T02:06:12.915Z,0
2017-06-28T02:07:12.574Z,0
2017-06-28T02:08:12.860Z,0
2017-06-28T02:09:12.862Z,0
2017-06-28T02:10:12.545Z,0
2017-06-28T02:11:12.535Z,0
2017-06-28T02:12:12.830Z,0
2017-06-28T02:13:12.815Z,0
2017-06-28T02:14:12.812Z,0
2017-06-28T02:15:12.502Z,0
2017-06-28T02:16:12.497Z,0
2017-06-28T02:17:12.786Z,0
2017-06-28T02:18:12.780Z,0
2017-06-28T02:19:12.465Z,0
2017-06-28T02:20:12.461Z,0
2017-06-28T02:21:12.748Z,0
2017-06-28T02:22:12.748Z,0
2017-06-28T02:23:12.740Z,0
2017-06-28T02:24:12.728Z,0
2017-06-28T02:25:12.721Z,0
2017-06-28T02:26:12.718Z,0
2017-06-28T02:27:12.713Z,0
2017-06-28T02:28:12.697Z,0
2017-06-28T02:29:12.383Z,0
2017-06-28T02:30:12.380Z,0
2017-06-28T02:31:12.671Z,0
2017-06-28T02:32:12.660Z,0
2017-06-28T02:33:12.654Z,0
2017-06-28T02:34:12.646Z,0
2017-06-28T02:35:12.637Z,0
2017-06-28T02:36:12.630Z,0
2017-06-28T02:37:12.618Z,0
2017-06-28T02:38:12.608Z,0
2017-06-28T02:39:12.604Z,0
2017-06-28T02:40:12.602Z,0
2017-06-28T02:41:12.279Z,0
2017-06-28T02:42:12.576Z,0
2017-06-28T02:43:12.560Z,0
2017-06-28T02:44:12.558Z,0
2017-06-28T02:45:12.558Z,0
2017-06-28T02:46:12.237Z,0
2017-06-28T02:47:12.536Z,0
2017-06-28T02:48:12.533Z,0
2017-06-28T02:49:12.516Z,0
2017-06-28T02:50:12.507Z,0
2017-06-28T02:51:12.497Z,0
2017-06-28T02:52:12.492Z,0
2017-06-28T02:53:12.481Z,0
2017-06-28T02:54:12.469Z,0
2017-06-28T02:55:12.463Z,0
2017-06-28T02:56:12.451Z,0
2017-06-28T02:57:12.448Z,0
2017-06-28T02:58:12.437Z,0
2017-06-28T02:59:12.429Z,0
2017-06-28T03:00:12.121Z,0
2017-06-28T03:01:11.804Z,0
2017-06-28T03:02:12.397Z,0
2017-06-28T03:03:12.392Z,0
2017-06-28T03:04:12.385Z,0
2017-06-28T03:05:12.066Z,0
2017-06-28T03:06:12.362Z,0
2017-06-28T03:07:12.050Z,0
2017-06-28T03:08:12.348Z,0
2017-06-28T03:09:12.337Z,0
2017-06-28T03:10:12.025Z,0
2017-06-28T03:11:12.320Z,0
2017-06-28T03:12:12.310Z,0
2017-06-28T03:13:12.001Z,0
2017-06-28T03:14:12.287Z,5
2017-06-28T03:15:12.280Z,5
2017-06-28T03:16:11.969Z,5
2017-06-28T03:17:11.959Z,5
2017-06-28T03:18:12.254Z,5
2017-06-28T03:19:12.241Z,10
2017-06-28T03:20:11.930Z,10
2017-06-28T03:21:12.226Z,10
2017-06-28T03:22:12.221Z,10
2017-06-28T03:23:12.210Z,15
2017-06-28T03:24:11.899Z,15
2017-06-28T03:25:11.880Z,15
2017-06-28T03:26:11.871Z,20
2017-06-28T03:27:11.862Z,20
2017-06-28T03:28:12.167Z,20
2017-06-28T03:29:12.148Z,25
2017-06-28T03:30:12.147Z,25
2017-06-28T03:31:12.147Z,30
2017-06-28T03:32:12.118Z,30
2017-06-28T03:33:12.111Z,35
2017-06-28T03:34:12.100Z,35
2017-06-28T03:35:12.089Z,40
2017-06-28T03:36:12.080Z,40
2017-06-28T03:37:12.104Z,45
2017-06-28T03:38:12.062Z,45
2017-06-28T03:39:11.747Z,50
2017-06-28T03:40:12.042Z,50
2017-06-28T03:41:12.027Z,55
2017-06-28T03:42:12.035Z,60
2017-06-28T03:43:12.009Z,65
2017-06-28T03:44:12.002Z,75
2017-06-28T03:45:11.992Z,80
2017-06-28T03:46:11.988Z,85
2017-06-28T03:47:11.974Z,90
2017-06-28T03:48:11.967Z,95
2017-06-28T03:49:11.951Z,100
2017-06-28T03:50:11.945Z,100
2017-06-28T03:51:11.933Z,105
2017-06-28T03:52:11.927Z,110
2017-06-28T03:53:11.955Z,110
2017-06-28T03:54:11.908Z,110
2017-06-28T03:55:11.902Z,110
2017-06-28T03:56:11.886Z,100
2017-06-28T03:57:11.884Z,110
2017-06-28T03:58:11.570Z,140
2017-06-28T03:59:11.555Z,160
2017-06-28T04:00:11.856Z,165
2017-06-28T04:01:11.845Z,185
2017-06-28T04:02:11.831Z,200
2017-06-28T04:03:11.825Z,215
2017-06-28T04:04:11.820Z,230
2017-06-28T04:05:11.804Z,250
2017-06-28T04:06:11.798Z,275
2017-06-28T04:07:11.787Z,295
2017-06-28T04:08:11.786Z,305
2017-06-28T04:09:11.765Z,315
2017-06-28T04:10:11.766Z,330
2017-06-28T04:11:11.746Z,340
2017-06-28T04:12:11.740Z,320
2017-06-28T04:13:11.728Z,310
2017-06-28T04:14:11.722Z,280
2017-06-28T04:15:11.435Z,280
2017-06-28T04:16:11.396Z,285
2017-06-28T04:17:11.398Z,270
2017-06-28T04:18:11.683Z,245
2017-06-28T04:19:11.668Z,225
2017-06-28T04:20:11.658Z,195
2017-06-28T04:21:11.656Z,180
2017-06-28T04:22:11.642Z,155
2017-06-28T04:23:11.657Z,130
2017-06-28T04:24:11.636Z,120
2017-06-28T04:25:11.315Z,115
2017-06-28T04:26:11.607Z,105
2017-06-28T04:27:11.596Z,95
2017-06-28T04:28:11.589Z,95
2017-06-28T04:29:11.606Z,95
2017-06-28T04:30:11.265Z,100
2017-06-28T04:31:11.561Z,110
2017-06-28T04:32:11.546Z,110
2017-06-28T04:33:11.543Z,115
2017-06-28T04:34:11.533Z,130
2017-06-28T04:35:11.518Z,140
2017-06-28T04:36:11.506Z,150
2017-06-28T04:37:11.497Z,170
2017-06-28T04:38:11.181Z,170
2017-06-28T04:39:11.175Z,155
2017-06-28T04:40:11.473Z,155
2017-06-28T04:41:11.468Z,145
2017-06-28T04:42:11.453Z,135
2017-06-28T04:43:11.439Z,170
2017-06-28T04:44:11.437Z,155
2017-06-28T04:45:11.422Z,160
2017-06-28T04:46:11.113Z,150
2017-06-28T04:47:11.100Z,175
2017-06-28T04:48:11.394Z,190
2017-06-28T04:49:11.083Z,200
2017-06-28T04:50:11.074Z,175
2017-06-28T04:51:11.358Z,170
2017-06-28T04:52:11.353Z,230
2017-06-28T04:53:11.047Z,305
2017-06-28T04:54:11.038Z,370
2017-06-28T04:55:11.334Z,415
2017-06-28T04:56:11.334Z,445
2017-06-28T04:57:11.313Z,450
2017-06-28T04:58:10.710Z,445
2017-06-28T04:59:11.291Z,455
2017-06-28T05:00:11.281Z,450
2017-06-28T05:01:11.273Z,440
2017-06-28T05:02:11.264Z,425
2017-06-28T05:03:11.254Z,435
2017-06-28T05:04:11.240Z,450
2017-06-28T05:05:11.232Z,480
2017-06-28T05:06:11.257Z,525
2017-06-28T05:07:10.926Z,570
2017-06-28T05:08:11.208Z,655
2017-06-28T05:09:10.898Z,770
2017-06-28T05:10:11.183Z,1335
2017-06-28T05:11:11.180Z,1265
2017-06-28T05:12:11.163Z,1445
2017-06-28T05:13:10.856Z,1385
2017-06-28T05:14:11.153Z,920
2017-06-28T05:15:11.142Z,565
2017-06-28T05:16:11.137Z,485
2017-06-28T05:17:10.517Z,475
2017-06-28T05:18:10.810Z,475
2017-06-28T05:19:11.108Z,490
2017-06-28T05:20:11.096Z,495
2017-06-28T05:21:10.785Z,455
2017-06-28T05:22:11.073Z,430
2017-06-28T05:23:11.059Z,425
2017-06-28T05:24:11.060Z,420
2017-06-28T05:25:10.745Z,420
2017-06-28T05:26:11.044Z,425
2017-06-28T05:27:11.034Z,470
2017-06-28T05:28:11.024Z,435
2017-06-28T05:29:10.708Z,450
2017-06-28T05:30:10.999Z,1000
2017-06-28T05:31:10.990Z,1515
2017-06-28T05:32:10.983Z,640
2017-06-28T05:33:10.973Z,520
2017-06-28T05:34:10.967Z,475
2017-06-28T05:35:10.952Z,485
2017-06-28T05:36:10.949Z,1315
2017-06-28T05:37:10.942Z,930
2017-06-28T05:38:10.927Z,1190
2017-06-28T05:39:10.616Z,1405
2017-06-28T05:40:10.308Z,650
2017-06-28T05:41:10.899Z,1140
2017-06-28T05:42:10.896Z,1435
2017-06-28T05:43:10.885Z,1730
2017-06-28T05:44:10.866Z,1730
2017-06-28T05:45:10.867Z,655
2017-06-28T05:46:10.855Z,780
2017-06-28T05:47:10.849Z,700
2017-06-28T05:48:10.849Z,1595
2017-06-28T05:49:10.835Z,1080
2017-06-28T05:50:10.828Z,1205
2017-06-28T05:51:10.812Z,1090
2017-06-28T05:52:10.803Z,1230
2017-06-28T05:53:10.800Z,1620
2017-06-28T05:54:10.491Z,1275
2017-06-28T05:55:10.782Z,1285
2017-06-28T05:56:10.781Z,1205
2017-06-28T05:57:10.763Z,885
2017-06-28T05:58:10.762Z,835
2017-06-28T05:59:10.450Z,925
2017-06-28T06:00:10.748Z,1010
2017-06-28T06:01:10.735Z,1000
2017-06-28T06:02:10.729Z,995
2017-06-28T06:03:10.721Z,1055
2017-06-28T06:04:10.715Z,1135
2017-06-28T06:05:10.406Z,1160
2017-06-28T06:06:10.393Z,1130
2017-06-28T06:07:10.686Z,1165
2017-06-28T06:08:10.674Z,1175
2017-06-28T06:09:10.666Z,1330
2017-06-28T06:10:10.362Z,1075
2017-06-28T06:11:10.047Z,1130
2017-06-28T06:12:10.345Z,1105
2017-06-28T06:13:10.335Z,1160
2017-06-28T06:14:10.332Z,2015
2017-06-28T06:15:10.322Z,1195
2017-06-28T06:16:10.315Z,2115
2017-06-28T06:17:10.607Z,1860
2017-06-28T06:18:10.602Z,1915
2017-06-28T06:19:10.293Z,2320
2017-06-28T06:20:09.983Z,1775
2017-06-28T06:21:10.580Z,1320
2017-06-28T06:22:10.574Z,1320
2017-06-28T06:23:10.565Z,1500
2017-06-28T06:24:10.552Z,1365
2017-06-28T06:25:10.249Z,1265
2017-06-28T06:26:10.541Z,1010
2017-06-28T06:27:10.538Z,1010
2017-06-28T06:28:10.530Z,905
2017-06-28T06:29:10.222Z,845
2017-06-28T06:30:10.209Z,800
2017-06-28T06:31:10.509Z,755
2017-06-28T06:32:10.495Z,730
2017-06-28T06:33:10.493Z,740
2017-06-28T06:34:10.475Z,780
2017-06-28T06:35:10.172Z,830
2017-06-28T06:36:10.474Z,860
2017-06-28T06:37:10.157Z,880
2017-06-28T06:38:10.456Z,895
2017-06-28T06:39:10.442Z,915
2017-06-28T06:40:10.132Z,935
2017-06-28T06:41:10.426Z,960
2017-06-28T06:42:10.425Z,1075
2017-06-28T06:43:10.110Z,1225
2017-06-28T06:44:10.411Z,1410
2017-06-28T06:45:10.401Z,1580
2017-06-28T06:46:10.088Z,1860
2017-06-28T06:47:10.083Z,2115
2017-06-28T06:48:10.375Z,2335
2017-06-28T06:49:10.373Z,1830
2017-06-28T06:50:09.762Z,1820
2017-06-28T06:51:10.347Z,3300
2017-06-28T06:52:10.347Z,1535
2017-06-28T06:53:10.336Z,1395
2017-06-28T06:54:10.329Z,1380
2017-06-28T06:55:10.328Z,1275
2017-06-28T06:56:10.021Z,1205
2017-06-28T06:57:10.017Z,1255
2017-06-28T06:58:10.293Z,1135
2017-06-28T06:59:10.290Z,1005
2017-06-28T07:00:10.293Z,830
2017-06-28T07:01:10.278Z,865
2017-06-28T07:02:09.971Z,695
2017-06-28T07:03:10.268Z,455
2017-06-28T07:04:09.654Z,305
2017-06-28T07:05:09.947Z,225
2017-06-28T07:06:10.247Z,155
2017-06-28T07:07:10.239Z,150
2017-06-28T07:08:10.230Z,145
2017-06-28T07:09:10.228Z,140
2017-06-28T07:10:09.916Z,130
2017-06-28T07:11:09.908Z,115
2017-06-28T07:12:10.197Z,100
2017-06-28T07:13:10.185Z,130
2017-06-28T07:14:09.878Z,165
2017-06-28T07:15:10.168Z,210
2017-06-28T07:16:10.170Z,255
2017-06-28T07:17:10.154Z,235
2017-06-28T07:18:10.147Z,210
2017-06-28T07:19:10.134Z,225
2017-06-28T07:20:09.216Z,450
2017-06-28T07:21:10.110Z,470
2017-06-28T07:22:10.102Z,450
2017-06-28T07:23:10.097Z,365
2017-06-28T07:24:10.085Z,470
2017-06-28T07:25:10.080Z,490
2017-06-28T07:26:09.790Z,555
2017-06-28T07:27:10.052Z,755
2017-06-28T07:28:10.038Z,1035
2017-06-28T07:29:10.028Z,1360
2017-06-28T07:30:10.011Z,1675
2017-06-28T07:31:09.697Z,1775
2017-06-28T07:32:09.698Z,2230
2017-06-28T07:33:09.977Z,1795
2017-06-28T07:34:09.970Z,2855
2017-06-28T07:35:09.658Z,2630
2017-06-28T07:36:09.951Z,1795
2017-06-28T07:37:09.931Z,1630
2017-06-28T07:38:09.923Z,2155
2017-06-28T07:39:09.919Z,3025
2017-06-28T07:40:09.909Z,2330
2017-06-28T07:41:09.890Z,1470
2017-06-28T07:42:09.892Z,1100
2017-06-28T07:43:09.877Z,935
2017-06-28T07:44:09.860Z,1060
2017-06-28T07:45:09.543Z,1270
2017-06-28T07:46:09.531Z,1565
2017-06-28T07:47:09.825Z,1330
2017-06-28T07:48:09.813Z,1460
2017-06-28T07:49:09.496Z,1820
2017-06-28T07:50:09.796Z,1725
2017-06-28T07:51:09.480Z,1320
2017-06-28T07:52:09.768Z,1215
2017-06-28T07:53:09.767Z,1115
2017-06-28T07:54:09.450Z,1090
2017-06-28T07:55:09.737Z,985
2017-06-28T07:56:09.722Z,905
2017-06-28T07:57:09.710Z,1010
2017-06-28T07:58:09.695Z,1335
2017-06-28T07:59:09.689Z,1190
2017-06-28T08:00:09.691Z,1160
2017-06-28T08:01:09.667Z,955
2017-06-28T08:02:09.679Z,725
2017-06-28T08:03:09.648Z,665
2017-06-28T08:04:09.632Z,550
2017-06-28T08:05:09.315Z,520
2017-06-28T08:06:09.612Z,645
2017-06-28T08:07:08.996Z,730
2017-06-28T08:08:09.594Z,705
2017-06-28T08:09:09.580Z,555
2017-06-28T08:10:09.577Z,495
2017-06-28T08:11:09.561Z,465
2017-06-28T08:12:09.550Z,430
2017-06-28T08:13:09.529Z,615
2017-06-28T08:14:09.221Z,775
2017-06-28T08:15:09.512Z,855
2017-06-28T08:16:09.198Z,985
2017-06-28T08:17:09.493Z,945
2017-06-28T08:18:09.476Z,805
2017-06-28T08:19:09.465Z,955
2017-06-28T08:20:08.849Z,550
2017-06-28T08:21:09.441Z,455
2017-06-28T08:22:08.854Z,615
2017-06-28T08:23:09.122Z,730
2017-06-28T08:24:09.107Z,905
2017-06-28T08:25:09.406Z,970
2017-06-28T08:26:09.388Z,855
2017-06-28T08:27:09.367Z,1030
2017-06-28T08:28:09.352Z,1435
2017-06-28T08:29:09.350Z,1650
2017-06-28T08:30:09.338Z,1790
2017-06-28T08:31:09.321Z,1940
2017-06-28T08:32:09.007Z,2055
2017-06-28T08:33:09.296Z,1930
2017-06-28T08:34:09.291Z,1750
2017-06-28T08:35:09.276Z,1715
2017-06-28T08:36:09.271Z,1770
2017-06-28T08:37:08.953Z,1890
2017-06-28T08:38:08.945Z,1885
2017-06-28T08:39:09.234Z,1620
2017-06-28T08:40:09.218Z,1480
2017-06-28T08:41:08.903Z,1380
2017-06-28T08:42:08.897Z,1355
2017-06-28T08:43:09.190Z,935
2017-06-28T08:44:09.208Z,700
2017-06-28T08:45:08.268Z,580
2017-06-28T08:46:08.555Z,520
2017-06-28T08:47:09.148Z,490
2017-06-28T08:48:08.830Z,505
2017-06-28T08:49:08.216Z,510
2017-06-28T08:50:09.110Z,545
2017-06-28T08:51:09.092Z,615
2017-06-28T08:52:09.085Z,685
2017-06-28T08:53:08.774Z,700
2017-06-28T08:54:09.069Z,625
2017-06-28T08:55:08.753Z,605
2017-06-28T08:56:09.043Z,590
2017-06-28T08:57:09.034Z,580
2017-06-28T08:58:09.027Z,600
2017-06-28T08:59:09.008Z,660
2017-06-28T09:00:09.001Z,740
2017-06-28T09:01:08.685Z,785
2017-06-28T09:02:08.685Z,860
2017-06-28T09:03:08.674Z,955
2017-06-28T09:04:08.961Z,1030
2017-06-28T09:05:08.646Z,1100
2017-06-28T09:06:08.635Z,1130
2017-06-28T09:07:08.930Z,1175
2017-06-28T09:08:08.929Z,1235
2017-06-28T09:09:08.913Z,1310
2017-06-28T09:10:08.899Z,1365
2017-06-28T09:11:08.883Z,1465
2017-06-28T09:12:09.082Z,1515
2017-06-28T09:13:08.856Z,1555
2017-06-28T09:14:08.854Z,1600
2017-06-28T09:15:08.538Z,1615
2017-06-28T09:16:08.527Z,1665
2017-06-28T09:17:22.197Z,1645
2017-06-28T09:18:08.804Z,1620
2017-06-28T09:19:08.809Z,1665
2017-06-28T09:20:08.786Z,1690
2017-06-28T09:21:08.778Z,1580
2017-06-28T09:22:08.471Z,1405
2017-06-28T09:23:08.757Z,1235
2017-06-28T09:24:08.746Z,1155
2017-06-28T09:25:08.732Z,1320
2017-06-28T09:26:08.719Z,1455
2017-06-28T09:27:08.707Z,1665
2017-06-28T09:28:08.702Z,1800
2017-06-28T09:29:08.689Z,1650
2017-06-28T09:30:08.683Z,1725
2017-06-28T09:31:08.674Z,1790
2017-06-28T09:32:08.660Z,1645
2017-06-28T09:33:08.667Z,1640
2017-06-28T09:34:08.634Z,1650
2017-06-28T09:35:08.629Z,1765
2017-06-28T09:36:08.621Z,1860
2017-06-28T09:37:08.026Z,1835
2017-06-28T09:38:08.603Z,1750
2017-06-28T09:39:08.595Z,1705
2017-06-28T09:40:08.572Z,1725
2017-06-28T09:41:08.570Z,1940
2017-06-28T09:42:08.252Z,1955
2017-06-28T09:43:08.246Z,1750
2017-06-28T09:44:08.230Z,1620
2017-06-28T09:45:08.533Z,1545
2017-06-28T09:46:08.519Z,1435
2017-06-28T09:47:08.501Z,1405
2017-06-28T09:48:08.499Z,1385
2017-06-28T09:49:22.123Z,1470
2017-06-28T09:50:08.476Z,1565
2017-06-28T09:51:08.467Z,1750
2017-06-28T09:52:08.454Z,1730
2017-06-28T09:53:08.457Z,1680
2017-06-28T09:54:21.810Z,1520
2017-06-28T09:55:22.071Z,1475
2017-06-28T09:56:08.114Z,1565
2017-06-28T09:57:08.114Z,1645
2017-06-28T09:58:08.425Z,1650
2017-06-28T09:59:08.396Z,1615
2017-06-28T10:00:08.380Z,1605
2017-06-28T10:01:08.081Z,1700
2017-06-28T10:02:08.357Z,1830
2017-06-28T10:03:08.355Z,1845
2017-06-28T10:04:08.345Z,1815
2017-06-28T10:05:08.033Z,1835
2017-06-28T10:06:08.325Z,1840
2017-06-28T10:07:08.020Z,1830
2017-06-28T10:08:08.321Z,1810
2017-06-28T10:09:08.308Z,1810
2017-06-28T10:10:08.291Z,1820
2017-06-28T10:11:08.281Z,1900
2017-06-28T10:12:08.265Z,1985
2017-06-28T10:13:08.272Z,2015
2017-06-28T10:14:08.255Z,2020
2017-06-28T10:15:08.242Z,2030
2017-06-28T10:16:08.231Z,2050
2017-06-28T10:17:08.236Z,2125
2017-06-28T10:18:08.213Z,2230
2017-06-28T10:19:08.205Z,2335
2017-06-28T10:20:08.191Z,2305
2017-06-28T10:21:08.183Z,2165
2017-06-28T10:22:07.883Z,2010
2017-06-28T10:23:07.865Z,1920
2017-06-28T10:24:08.154Z,1985
2017-06-28T10:25:08.149Z,2245
2017-06-28T10:26:09.336Z,2370
2017-06-28T10:27:07.824Z,3180
2017-06-28T10:28:08.125Z,4065
2017-06-28T10:29:08.112Z,4715
2017-06-28T10:30:08.105Z,5370
2017-06-28T10:31:08.291Z,6075
2017-06-28T10:32:08.285Z,5090
2017-06-28T10:33:07.770Z,5350
2017-06-28T10:34:08.065Z,5255
2017-06-28T10:35:07.750Z,5215
2017-06-28T10:36:08.045Z,4475
2017-06-28T10:37:08.041Z,4515
2017-06-28T10:38:08.031Z,4970
2017-06-28T10:39:07.716Z,5295
2017-06-28T10:40:08.013Z,5090
2017-06-28T10:41:08.008Z,4900
2017-06-28T10:42:07.387Z,5105
2017-06-28T10:43:07.984Z,4590
2017-06-28T10:44:07.675Z,4160
2017-06-28T10:45:07.665Z,4425
2017-06-28T10:46:07.655Z,4895
2017-06-28T10:47:07.652Z,4570
2017-06-28T10:48:07.644Z,2220
2017-06-28T10:49:07.935Z,1935
2017-06-28T10:50:07.927Z,1845
2017-06-28T10:51:07.918Z,1655
2017-06-28T10:52:07.609Z,3345
2017-06-28T10:53:07.293Z,4075
2017-06-28T10:54:07.595Z,2815
2017-06-28T10:55:20.920Z,3095
2017-06-28T10:56:07.876Z,2420
2017-06-28T10:57:07.869Z,2840
2017-06-28T10:58:07.558Z,3630
2017-06-28T10:59:07.548Z,3395
2017-06-28T11:00:07.544Z,4045
2017-06-28T11:01:07.533Z,3175
2017-06-28T11:02:07.522Z,3070
2017-06-28T11:03:07.515Z,3135
2017-06-28T11:04:09.019Z,4820
2017-06-28T11:05:07.808Z,2880
2017-06-28T11:06:07.494Z,4710
2017-06-28T11:07:07.778Z,4720
2017-06-28T11:08:07.799Z,3170
2017-06-28T11:09:07.471Z,5305
2017-06-28T11:10:07.463Z,3680
2017-06-28T11:11:07.754Z,5190
2017-06-28T11:12:07.444Z,3850
2017-06-28T11:13:07.740Z,2525
2017-06-28T11:14:07.734Z,2075
2017-06-28T11:15:07.923Z,1760
2017-06-28T11:16:07.717Z,2095
2017-06-28T11:17:07.404Z,2270
2017-06-28T11:18:07.398Z,2285
2017-06-28T11:19:07.720Z,3315
2017-06-28T11:20:07.735Z,6365
2017-06-28T11:21:07.941Z,3475
2017-06-28T11:22:07.738Z,3100
2017-06-28T11:23:07.705Z,2655
2017-06-28T11:24:07.653Z,1910
2017-06-28T11:25:07.350Z,1780
2017-06-28T11:26:07.644Z,1590
2017-06-28T11:27:07.640Z,1855
2017-06-28T11:28:07.633Z,1675
2017-06-28T11:29:07.620Z,1210
2017-06-28T11:30:07.623Z,1305
2017-06-28T11:31:07.612Z,1310
2017-06-28T11:32:07.605Z,1705
2017-06-28T11:33:07.596Z,1530
2017-06-28T11:34:07.588Z,1230
2017-06-28T11:35:07.282Z,1440
2017-06-28T11:36:07.576Z,1305
2017-06-28T11:37:07.271Z,1270
2017-06-28T11:38:07.562Z,1570
2017-06-28T11:39:07.549Z,1975
2017-06-28T11:40:07.243Z,2125
2017-06-28T11:41:07.533Z,1980
2017-06-28T11:44:20.251Z,1500
2017-06-28T11:45:07.201Z,1305
2017-06-28T11:46:07.494Z,1270
2017-06-28T11:47:07.190Z,1215
2017-06-28T11:48:07.479Z,1320
2017-06-28T11:49:07.666Z,1350
2017-06-28T11:50:07.459Z,1670
2017-06-28T11:51:07.153Z,1780
2017-06-28T11:52:07.446Z,1735
2017-06-28T11:53:07.645Z,2055
2017-06-28T11:54:07.428Z,2910
2017-06-28T11:55:07.425Z,2895
2017-06-28T11:56:07.407Z,3495
2017-06-28T11:57:07.401Z,2585
2017-06-28T11:58:07.394Z,2135
2017-06-28T11:59:07.387Z,1660
2017-06-28T12:00:06.776Z,1410
2017-06-28T12:01:07.378Z,1180
2017-06-28T12:02:07.059Z,1045
2017-06-28T12:03:07.356Z,970
2017-06-28T12:04:07.346Z,1125
2017-06-28T12:05:07.341Z,1735
2017-06-28T12:06:07.334Z,1655
2017-06-28T12:07:07.323Z,1450
2017-06-28T12:08:07.320Z,1335
2017-06-28T12:09:07.308Z,1670
2017-06-28T12:10:07.305Z,1735
2017-06-28T12:11:06.987Z,1495
2017-06-28T12:12:06.980Z,1865
2017-06-28T12:13:06.977Z,1695
2017-06-28T12:14:07.006Z,1205
2017-06-28T12:15:07.260Z,1300
2017-06-28T12:16:07.250Z,2765
2017-06-28T12:17:07.148Z,1545
2017-06-28T12:18:07.237Z,1165
2017-06-28T12:19:06.929Z,905
2017-06-28T12:20:07.219Z,915
2017-06-28T12:21:07.212Z,1070
2017-06-28T12:22:07.420Z,1325
2017-06-28T12:23:07.199Z,1545
2017-06-28T12:24:07.221Z,1410
2017-06-28T12:25:07.190Z,1305
2017-06-28T12:26:07.175Z,1270
2017-06-28T12:27:07.378Z,1450
2017-06-28T12:28:07.372Z,1295
2017-06-28T12:29:07.154Z,1235
2017-06-28T12:30:07.147Z,1270
2017-06-28T12:31:07.143Z,1175
2017-06-28T12:32:07.132Z,1040
2017-06-28T12:33:07.333Z,920
2017-06-28T12:34:06.825Z,1035
2017-06-28T12:35:07.111Z,1265
2017-06-28T12:36:06.801Z,1635
2017-06-28T12:37:06.797Z,3230
2017-06-28T12:38:06.796Z,2415
2017-06-28T12:39:07.096Z,1815
2017-06-28T12:40:07.084Z,1725
2017-06-28T12:41:07.078Z,2115
2017-06-28T12:42:07.067Z,2805
2017-06-28T12:43:06.457Z,2395
2017-06-28T12:44:06.755Z,2175
2017-06-28T12:45:07.046Z,2150
2017-06-28T12:46:06.741Z,1875
2017-06-28T12:47:07.027Z,1720
2017-06-28T12:48:07.029Z,1665
2017-06-28T12:49:07.022Z,1810
2017-06-28T12:50:06.713Z,2065
2017-06-28T12:51:07.023Z,2105
2017-06-28T12:52:06.701Z,2175
2017-06-28T12:53:06.695Z,2210
2017-06-28T12:54:06.691Z,2250
2017-06-28T12:55:06.977Z,2045
2017-06-28T12:56:06.878Z,2290
2017-06-28T12:57:06.969Z,2640
2017-06-28T12:58:06.962Z,3575
2017-06-28T12:59:06.651Z,3710
2017-06-28T13:00:06.948Z,3235
2017-06-28T13:01:07.148Z,2885
2017-06-28T13:02:06.930Z,2530
2017-06-28T13:03:06.921Z,2060
2017-06-28T13:04:06.626Z,1545
2017-06-28T13:05:06.916Z,1575
2017-06-28T13:06:06.900Z,1445
2017-06-28T13:07:07.096Z,1255
2017-06-28T13:08:06.902Z,1085
2017-06-28T13:09:06.891Z,1145
2017-06-28T13:10:06.880Z,1810
2017-06-28T13:11:06.868Z,2190
2017-06-28T13:12:07.070Z,1715
2017-06-28T13:13:06.861Z,1420
2017-06-28T13:14:06.856Z,1165
2017-06-28T13:15:06.844Z,1440
2017-06-28T13:16:06.834Z,1995
2017-06-28T13:17:06.834Z,2040
2017-06-28T13:18:06.829Z,2050
2017-06-28T13:19:06.813Z,1760
2017-06-28T13:20:06.814Z,1600
2017-06-28T13:21:06.803Z,1460
2017-06-28T13:22:06.801Z,1595
2017-06-28T13:23:06.825Z,1905
2017-06-28T13:24:06.786Z,2025
2017-06-28T13:25:06.477Z,2035
2017-06-28T13:26:06.774Z,2115
2017-06-28T13:27:06.768Z,2175
2017-06-28T13:28:06.762Z,2155
2017-06-28T13:29:06.756Z,1950
2017-06-28T13:30:06.743Z,1700
2017-06-28T13:31:06.737Z,1495
2017-06-28T13:32:06.729Z,1465
2017-06-28T13:33:06.721Z,1380
2017-06-28T13:34:06.723Z,1245
2017-06-28T13:35:06.724Z,1350
2017-06-28T13:36:06.714Z,1625
2017-06-28T13:37:06.693Z,1685
2017-06-28T13:38:06.691Z,1440
2017-06-28T13:39:06.680Z,1200
2017-06-28T13:40:06.678Z,1155
2017-06-28T13:41:06.369Z,1385
2017-06-28T13:42:06.583Z,1635
2017-06-28T13:43:06.359Z,1700
2017-06-28T13:44:06.350Z,1640
2017-06-28T13:45:06.635Z,1545
2017-06-28T13:46:06.327Z,1450
2017-06-28T13:47:06.625Z,1520
2017-06-28T13:48:06.620Z,1655
2017-06-28T13:49:06.304Z,1575